Shepherd Moon — MCQS3 — position and weather

sailwx.info

Track history (hours):
 
Tides and Currents Weather Stations Pressure Air Temp Water Temp Dewpoint Dewpoint Depression Visibility Wind Speed Wind Dir Waves Ship Positions

Shepherd Moon

Last reported at 2018-Jan-09 16:09 UTC. Time now 2018-Jan-23 14:06 UTC.
Position N 14°24' W 061°03'.
Warning: this ship's position is 13 days out of date.

Length 15 m.

Type: Sailing vessel. MMSI: 235013791.

Date/timePositionNaut miles runAvg speedWind from/ knotsBaromVisibWave heightAir tempDewpointWater temp
2018-Jan-09 16:09N 14°24' W 061°03'1 6.3
2018-Jan-09 16:00N 14°25' W 061°02'3 6.7
2018-Jan-09 15:30N 14°25' W 060°59'3 5.2
2018-Jan-09 15:00N 14°26' W 060°56'2 4.4
2018-Jan-09 14:28N 14°26' W 060°54'0 0.1
2018-Jan-09 13:34N 14°26' W 060°54'0 0.0
2018-Jan-09 13:28N 14°26' W 060°54'0 0.0
2018-Jan-09 12:58N 14°26' W 060°54'0 0.0
2018-Jan-09 12:28N 14°26' W 060°54'0 0.0
2018-Jan-08 22:24N 14°26' W 060°54'0 0.0
2018-Jan-08 21:22N 14°26' W 060°54'0 0.0
2018-Jan-08 20:58N 14°26' W 060°54'2 4.3
2018-Jan-08 20:30N 14°28' W 060°53'1 1.6
2018-Jan-08 20:01N 14°28' W 060°52'  
2018-Jan-05 13:27N 14°28' W 060°52'0 0.4
2018-Jan-05 13:00N 14°28' W 060°52'1 3.0
2018-Jan-05 12:30N 14°27' W 060°53'3 5.2
2018-Jan-05 12:00N 14°26' W 060°56'3 6.4
2018-Jan-05 11:30N 14°23' W 060°57'3 6.8
2018-Jan-05 11:00N 14°19' W 060°57'  
Track history (hours):
 
Tides and Currents Weather Stations Pressure Air Temp Water Temp Dewpoint Dewpoint Depression Visibility Wind Speed Wind Dir Waves Ship Positions

Shepherd Moon

Last reported at 2018-Jan-09 16:09 UTC. Time now 2018-Jan-23 14:06 UTC.
Position N 14°24' W 061°03'.
Warning: this ship's position is 13 days out of date.

Length 15 m.

Type: Sailing vessel. MMSI: 235013791.

Date/timePositionNaut miles runAvg speedWind from/ knotsBaromVisibWave heightAir tempDewpointWater temp
2018-Jan-09 16:09N 14°24' W 061°03'1 6.3
2018-Jan-09 16:00N 14°25' W 061°02'3 6.7
2018-Jan-09 15:30N 14°25' W 060°59'3 5.2
2018-Jan-09 15:00N 14°26' W 060°56'2 4.4
2018-Jan-09 14:28N 14°26' W 060°54'0 0.1
2018-Jan-09 13:34N 14°26' W 060°54'0 0.0
2018-Jan-09 13:28N 14°26' W 060°54'0 0.0
2018-Jan-09 12:58N 14°26' W 060°54'0 0.0
2018-Jan-09 12:28N 14°26' W 060°54'0 0.0
2018-Jan-08 22:24N 14°26' W 060°54'0 0.0
2018-Jan-08 21:22N 14°26' W 060°54'0 0.0
2018-Jan-08 20:58N 14°26' W 060°54'2 4.3
2018-Jan-08 20:30N 14°28' W 060°53'1 1.6
2018-Jan-08 20:01N 14°28' W 060°52'  
2018-Jan-05 13:27N 14°28' W 060°52'0 0.4
2018-Jan-05 13:00N 14°28' W 060°52'1 3.0
2018-Jan-05 12:30N 14°27' W 060°53'3 5.2
2018-Jan-05 12:00N 14°26' W 060°56'3 6.4
2018-Jan-05 11:30N 14°23' W 060°57'3 6.8
2018-Jan-05 11:00N 14°19' W 060°57'  

Dump ship's entire track history